Terminal Aerodrome Forecast
Issued by NWS

Home | Current Version | Previous Version | Text Only | Print | Product List | Glossary On
Versions: 1 2 3 4 5 6 7 8 9 10 11 12 13 14 15 16 17 18 19 20 21
000
FTUS41 KALY 080520
TAFPSF
TAF
KPSF 080520Z 0806/0906 26007KT P6SM VCSH SCT150 BKN250
      TEMPO 0808/0812 3SM -SHRA BKN015 OVC030
     FM081200 28005KT P6SM BKN035 BKN080
     FM081700 31007KT P6SM SCT035
     FM082300 00000KT P6SM FEW090=

USA.gov is the U.S. government's official web portal to all federal, state and local government web resources and services.